North Ferrisburg, Vermont
Current Conditions -  °F | °C
As of 8:54 PM on Wednesday 22 Oct 2014 (Local Time) from KBTV Reporting Station
Overcast Overcast  
Wind Chill: 51°   Ceiling: 4500
Heat Index: 51°   Visibility: 10mi
Dew Point: 40°   Wind: 10mph
Humidity: 66%   Direction: 340°NNW
Pressure: 30.11"   Gusts: NA
Location:  44.26°N, 73.21°W
Report Text: KBTV 230054Z 34009KT 10SM OVC045 11/04 A3011 RMK AO2 RAE2356 SLP198 P0000 T01060044
Loading
Personal Weather Stations






























Interactive Weather Map
Tropical Storm Tracking
New forecast layout! Learn more

10-Day Weather Forecast

Advertisements
Track Severe Weather on mobile